createdAt,value
2018-08-31T00:03:14.248Z,0.0
2018-08-31T00:13:28.456Z,0.0
2018-08-31T00:23:41.838Z,0.0
2018-08-31T00:34:29.881Z,0.0
2018-08-31T00:44:43.347Z,0.0
2018-08-31T00:54:57.094Z,0.0
2018-08-31T01:05:11.276Z,0.0
2018-08-31T01:15:25.632Z,0.0
2018-08-31T01:25:39.841Z,0.0
2018-08-31T01:35:54.147Z,0.0
2018-08-31T01:46:08.303Z,0.0
2018-08-31T01:56:53.830Z,0.0
2018-08-31T02:07:37.696Z,0.0
2018-08-31T02:17:51.322Z,0.0
2018-08-31T02:28:05.470Z,0.0
2018-08-31T02:38:19.741Z,0.0
2018-08-31T02:49:04.290Z,0.0
2018-08-31T02:59:17.788Z,0.0
2018-08-31T03:09:33.550Z,0.0
2018-08-31T03:19:47.057Z,0.0
2018-08-31T03:29:58.577Z,0.0
2018-08-31T03:40:14.979Z,0.0
2018-08-31T03:50:28.700Z,0.0
2018-08-31T04:00:48.119Z,0.0
2018-08-31T04:11:02.122Z,4.0
2018-08-31T04:21:15.718Z,12.0
2018-08-31T04:31:29.914Z,44.0
2018-08-31T04:41:44.555Z,140.0
2018-08-31T04:51:58.154Z,316.0
2018-08-31T05:02:12.364Z,612.0
2018-08-31T05:12:26.752Z,984.0
2018-08-31T05:22:38.837Z,1352.0
2018-08-31T05:33:23.595Z,1780.0
2018-08-31T05:43:37.679Z,2252.0
2018-08-31T05:53:51.769Z,2584.0
2018-08-31T06:04:35.871Z,3140.0
2018-08-31T06:14:50.180Z,3552.0
2018-08-31T06:25:12.770Z,4352.0
2018-08-31T06:35:26.463Z,5296.0
2018-08-31T06:45:37.837Z,5908.0
2018-08-31T06:55:52.298Z,6964.0
2018-08-31T07:06:07.174Z,7580.0
2018-08-31T07:16:51.923Z,10420.0
2018-08-31T07:27:06.236Z,12136.0
2018-08-31T07:37:17.799Z,12768.0
2018-08-31T07:47:31.242Z,13180.0
2018-08-31T07:57:45.075Z,15712.0
2018-08-31T08:07:58.979Z,20352.0
2018-08-31T08:18:12.972Z,24864.0
2018-08-31T08:28:26.939Z,26848.0
2018-08-31T08:38:38.506Z,25440.0
2018-08-31T08:48:59.344Z,30880.0
2018-08-31T08:59:13.097Z,33216.0
2018-08-31T09:09:27.293Z,30816.0
2018-08-31T09:19:42.400Z,32224.0
2018-08-31T09:29:53.890Z,31648.0
2018-08-31T09:40:08.624Z,15104.0
2018-08-31T09:50:54.284Z,20160.0
2018-08-31T10:01:07.667Z,12856.0
2018-08-31T10:11:22.069Z,10448.0
2018-08-31T10:21:36.853Z,21248.0
2018-08-31T10:31:50.625Z,45920.0
2018-08-31T10:42:04.618Z,48224.0
2018-08-31T10:52:18.385Z,24800.0
2018-08-31T11:03:05.153Z,21440.0
2018-08-31T11:13:21.146Z,12964.0
2018-08-31T11:23:35.238Z,10196.0
2018-08-31T11:33:49.414Z,8460.0
2018-08-31T11:44:35.723Z,9820.0
2018-08-31T11:55:20.157Z,14460.0
2018-08-31T12:05:34.573Z,42272.0
2018-08-31T12:15:47.012Z,64736.0
2018-08-31T12:26:04.401Z,64672.0
2018-08-31T12:36:18.458Z,24896.0
2018-08-31T12:46:33.519Z,14244.0
2018-08-31T12:56:47.700Z,5736.0
2018-08-31T13:07:02.451Z,4216.0
2018-08-31T13:17:14.111Z,4912.0
2018-08-31T13:27:28.168Z,6400.0
2018-08-31T13:37:42.724Z,11928.0
2018-08-31T13:47:56.578Z,46784.0
2018-08-31T13:58:11.306Z,22624.0
2018-08-31T14:08:24.808Z,23968.0
2018-08-31T14:18:39.249Z,23520.0
2018-08-31T14:28:53.588Z,9520.0
2018-08-31T14:39:07.752Z,4748.0
2018-08-31T14:49:22.046Z,2716.0
2018-08-31T15:00:07.314Z,1696.0
2018-08-31T15:10:21.752Z,1040.0
2018-08-31T15:21:07.153Z,584.0
2018-08-31T15:31:20.766Z,548.0
2018-08-31T15:41:34.064Z,608.0
2018-08-31T15:51:47.835Z,752.0
2018-08-31T16:01:59.773Z,916.0
2018-08-31T16:12:13.808Z,956.0
2018-08-31T16:22:57.828Z,980.0
2018-08-31T16:33:12.658Z,984.0
2018-08-31T16:43:26.660Z,924.0
2018-08-31T16:53:41.332Z,824.0
2018-08-31T17:03:55.286Z,724.0
2018-08-31T17:14:09.520Z,612.0
2018-08-31T17:24:55.000Z,560.0
2018-08-31T17:35:09.548Z,468.0
2018-08-31T17:45:56.240Z,360.0
2018-08-31T17:56:09.266Z,292.0
2018-08-31T18:06:55.226Z,204.0
2018-08-31T18:17:40.664Z,112.0
2018-08-31T18:27:55.785Z,48.0
2018-08-31T18:38:10.455Z,12.0
2018-08-31T18:48:24.301Z,0.0
2018-08-31T18:58:45.449Z,0.0
2018-08-31T19:19:50.200Z,0.0
2018-08-31T19:30:05.289Z,0.0
2018-08-31T19:40:50.429Z,0.0
2018-08-31T19:51:04.319Z,0.0
2018-08-31T20:01:21.888Z,0.0
2018-08-31T20:11:36.238Z,0.0
2018-08-31T20:23:24.702Z,0.0
2018-08-31T20:33:36.296Z,0.0
2018-08-31T20:43:50.215Z,0.0
2018-08-31T20:54:03.828Z,0.0
2018-08-31T21:04:48.827Z,0.0
2018-08-31T21:15:02.867Z,0.0
2018-08-31T21:25:17.778Z,0.0
2018-08-31T21:35:31.919Z,0.0
2018-08-31T21:46:15.677Z,0.0
2018-08-31T21:56:30.553Z,0.0
2018-08-31T22:06:44.430Z,0.0
2018-08-31T22:16:58.896Z,0.0
2018-08-31T22:27:12.460Z,0.0
2018-08-31T22:37:24.025Z,0.0
2018-08-31T22:47:38.002Z,0.0
2018-08-31T22:57:51.339Z,0.0
2018-08-31T23:08:35.902Z,0.0
2018-08-31T23:19:06.998Z,0.0
2018-08-31T23:29:20.662Z,0.0
2018-08-31T23:39:35.010Z,0.0
2018-08-31T23:49:48.896Z,0.0
